Time;durP1;ratioP1;P1;durP2;ratioP2;P2;SDS_P1;SDS_P2;PMS_P1;PMS_P2;Temp;Humidity;BMP_temperature;BMP_pressure;BME280_temperature;BME280_humidity;BME280_pressure;Samples;Min_cycle;Max_cycle;Signal;HPM_P1;HPM_P2
2021/08/06 00:02:38;;;;;;;21.85;13.98;;;;;;;14.64;100.00;100272.06;6226257;28;20480;-80
2021/08/06 00:05:42;;;;;;;22.15;14.23;;;;;;;14.60;100.00;100269.78;6226490;28;20401;-79
2021/08/06 00:08:44;;;;;;;19.10;13.75;;;;;;;14.58;100.00;100266.41;6226476;28;20049;-79
2021/08/06 00:11:45;;;;;;;15.95;14.15;;;;;;;14.57;100.00;100268.22;6226377;28;20046;-79
2021/08/06 00:14:46;;;;;;;17.25;14.80;;;;;;;14.53;100.00;100255.34;6226048;28;20046;-79
2021/08/06 00:17:48;;;;;;;18.60;14.95;;;;;;;14.49;100.00;100254.75;6226085;28;20056;-80
2021/08/06 00:20:51;;;;;;;22.08;14.93;;;;;;;14.46;100.00;100263.72;6226007;28;20675;-79
2021/08/06 00:23:52;;;;;;;19.50;14.27;;;;;;;14.46;100.00;100262.91;6225720;28;20050;-79
2021/08/06 00:26:54;;;;;;;22.77;15.45;;;;;;;14.45;100.00;100269.16;6226189;28;20060;-80
2021/08/06 00:29:55;;;;;;;16.65;13.55;;;;;;;14.43;100.00;100253.38;6225696;28;20049;-79
2021/08/06 00:32:57;;;;;;;20.75;14.77;;;;;;;14.41;100.00;100242.09;6225801;28;20511;-79
2021/08/06 00:35:59;;;;;;;17.08;14.65;;;;;;;14.43;100.00;100249.91;6261316;22;20057;-76
2021/08/06 00:39:01;;;;;;;22.52;14.73;;;;;;;14.40;100.00;100250.16;6251427;28;20053;-76
2021/08/06 00:42:02;;;;;;;19.45;15.02;;;;;;;14.38;100.00;100252.06;6249604;28;20068;-76
2021/08/06 00:45:05;;;;;;;16.50;13.48;;;;;;;14.34;100.00;100247.97;6225799;28;20064;-77
2021/08/06 00:48:07;;;;;;;18.88;14.20;;;;;;;14.30;100.00;100246.50;6225668;28;20058;-76
2021/08/06 00:51:10;;;;;;;18.83;13.80;;;;;;;14.28;100.00;100245.81;6226843;28;20069;-76
2021/08/06 00:54:12;;;;;;;23.45;15.07;;;;;;;14.28;100.00;100241.34;6226249;28;20057;-76
2021/08/06 00:57:13;;;;;;;16.42;13.82;;;;;;;14.29;100.00;100236.91;6225860;28;20053;-76
2021/08/06 01:00:15;;;;;;;15.88;13.90;;;;;;;14.28;100.00;100227.31;6225850;28;20540;-76
2021/08/06 01:03:21;;;;;;;20.48;13.50;;;;;;;14.26;100.00;100239.78;6225921;28;20042;-76
2021/08/06 01:06:40;;;;;;;19.10;14.65;;;;;;;14.24;100.00;100228.50;6226411;28;20050;-76
2021/08/06 01:09:46;;;;;;;16.80;14.05;;;;;;;14.21;100.00;100225.13;6226608;28;20050;-76
2021/08/06 01:12:53;;;;;;;18.85;15.98;;;;;;;14.22;100.00;100231.28;6225822;28;20049;-76
2021/08/06 01:15:58;;;;;;;18.05;14.40;;;;;;;14.22;100.00;100228.63;6225125;28;20052;-76
2021/08/06 01:19:07;;;;;;;16.85;15.02;;;;;;;14.20;100.00;100231.38;6224569;28;20054;-77
2021/08/06 01:22:20;;;;;;;20.27;15.10;;;;;;;14.19;100.00;100231.50;6224241;28;20056;-77
2021/08/06 01:25:45;;;;;;;19.13;15.48;;;;;;;14.19;100.00;100226.22;6224030;28;20296;-77
2021/08/06 01:28:49;;;;;;;22.85;14.73;;;;;;;14.14;100.00;100231.84;6224464;28;20133;-77
2021/08/06 01:31:51;;;;;;;21.98;15.50;;;;;;;14.12;100.00;100224.97;6223934;28;20050;-76
2021/08/06 01:34:52;;;;;;;17.15;14.20;;;;;;;14.10;100.00;100227.75;6223685;28;20061;-76
2021/08/06 01:37:53;;;;;;;17.85;15.20;;;;;;;14.09;100.00;100227.88;6223964;28;20060;-76
2021/08/06 01:41:12;;;;;;;18.40;15.07;;;;;;;14.03;100.00;100229.16;6224006;28;20528;-77
2021/08/06 01:44:20;;;;;;;18.55;14.70;;;;;;;14.01;100.00;100230.25;6223679;28;20054;-76
2021/08/06 01:47:26;;;;;;;18.25;14.70;;;;;;;14.00;100.00;100231.22;6223922;28;20053;-76
2021/08/06 01:50:31;;;;;;;17.77;13.90;;;;;;;13.98;100.00;100223.38;6223704;28;20061;-77
2021/08/06 01:53:36;;;;;;;17.00;14.23;;;;;;;13.93;100.00;100230.81;6223411;28;20050;-77
2021/08/06 01:56:40;;;;;;;18.25;13.52;;;;;;;13.88;100.00;100225.88;6223540;28;20053;-77
2021/08/06 01:59:43;;;;;;;23.27;14.57;;;;;;;13.88;100.00;100227.69;6223635;28;20050;-77
2021/08/06 02:02:45;;;;;;;20.42;13.93;;;;;;;13.87;100.00;100228.66;6223423;28;20133;-77
2021/08/06 02:05:50;;;;;;;17.52;14.23;;;;;;;13.84;100.00;100224.44;6223010;28;20061;-77
2021/08/06 02:08:51;;;;;;;16.85;14.05;;;;;;;13.83;100.00;100228.03;6223342;28;20156;-76
2021/08/06 02:11:54;;;;;;;20.30;14.27;;;;;;;13.78;100.00;100216.97;6223041;28;20053;-77
2021/08/06 02:14:56;;;;;;;21.67;15.32;;;;;;;13.75;100.00;100224.28;6222891;28;20049;-77
2021/08/06 02:17:58;;;;;;;23.67;15.30;;;;;;;13.74;100.00;100225.25;6223002;28;20057;-77
2021/08/06 02:21:06;;;;;;;16.65;13.80;;;;;;;13.75;100.00;100225.13;6223042;28;20061;-77
2021/08/06 02:24:10;;;;;;;18.33;15.18;;;;;;;13.70;100.00;100217.53;6221690;28;20046;-77
2021/08/06 02:27:16;;;;;;;23.83;15.93;;;;;;;13.70;100.00;100217.53;6222793;28;20401;-77
2021/08/06 02:30:21;;;;;;;19.77;14.68;;;;;;;13.68;100.00;100227.41;6222771;28;20061;-76
2021/08/06 02:33:23;;;;;;;18.08;15.00;;;;;;;13.68;100.00;100216.84;6222643;28;20057;-76
2021/08/06 02:36:25;;;;;;;20.20;15.57;;;;;;;13.70;100.00;100220.19;6222539;28;20420;-76
2021/08/06 02:39:29;;;;;;;20.98;14.98;;;;;;;13.70;100.00;100222.00;6222859;28;20136;-77
2021/08/06 02:42:34;;;;;;;19.50;15.68;;;;;;;13.67;100.00;100220.44;6222526;28;20048;-76
2021/08/06 02:45:35;;;;;;;21.02;15.43;;;;;;;13.66;100.00;100220.53;6222385;28;20192;-77
2021/08/06 02:48:37;;;;;;;23.73;16.15;;;;;;;13.65;100.00;100224.13;6222382;28;20049;-76
2021/08/06 02:51:38;;;;;;;20.55;17.00;;;;;;;13.62;100.00;100213.78;6222541;28;20053;-76
2021/08/06 02:54:39;;;;;;;19.75;15.75;;;;;;;13.62;100.00;100214.63;6222236;28;20053;-76
2021/08/06 02:57:42;;;;;;;22.13;15.48;;;;;;;13.62;100.00;100213.78;6222240;28;20057;-76
2021/08/06 03:00:43;;;;;;;20.23;15.43;;;;;;;13.63;100.00;100204.94;6222526;28;20057;-76
2021/08/06 03:03:45;;;;;;;25.40;17.52;;;;;;;13.57;100.00;100193.00;6221835;28;20049;-76
2021/08/06 03:06:46;;;;;;;22.85;16.77;;;;;;;13.55;100.00;100194.94;6222377;28;20417;-77
2021/08/06 03:09:47;;;;;;;20.98;16.40;;;;;;;13.56;100.00;100190.50;6222098;28;20046;-76
2021/08/06 03:12:51;;;;;;;23.30;16.98;;;;;;;13.58;100.00;100196.50;6222143;28;20076;-76
2021/08/06 03:15:52;;;;;;;24.45;17.40;;;;;;;13.58;100.00;100186.81;6221754;28;20512;-77
2021/08/06 03:18:54;;;;;;;24.10;16.50;;;;;;;13.58;100.00;100183.28;6222167;28;20053;-77
2021/08/06 03:21:55;;;;;;;21.42;16.40;;;;;;;13.57;100.00;100178.97;6222435;28;20050;-77
2021/08/06 03:24:56;;;;;;;23.35;16.92;;;;;;;13.59;100.00;100185.84;6221819;28;20053;-76
2021/08/06 03:27:59;;;;;;;21.55;16.95;;;;;;;13.58;100.00;100178.88;6222537;28;20512;-77
2021/08/06 03:31:00;;;;;;;21.30;16.63;;;;;;;13.58;100.00;100172.72;6221839;28;20405;-76
2021/08/06 03:34:02;;;;;;;20.30;16.05;;;;;;;13.62;100.00;100171.53;6221722;28;20046;-76
2021/08/06 03:37:04;;;;;;;18.73;15.43;;;;;;;13.60;100.00;100163.75;6225658;28;20073;-76
2021/08/06 03:40:06;;;;;;;27.73;17.38;;;;;;;13.58;100.00;100167.44;6227017;28;20053;-76
2021/08/06 03:43:09;;;;;;;25.83;15.50;;;;;;;13.58;100.00;100178.00;6226601;28;20042;-76
2021/08/06 03:46:11;;;;;;;20.80;15.95;;;;;;;13.58;100.00;100172.72;6226578;28;20049;-77
2021/08/06 03:49:12;;;;;;;21.25;15.27;;;;;;;13.57;100.00;100161.34;6226522;28;20057;-76
2021/08/06 03:52:13;;;;;;;21.08;17.27;;;;;;;13.52;100.00;100158.19;6226500;28;20524;-77
2021/08/06 03:55:15;;;;;;;18.67;15.52;;;;;;;13.52;100.00;100163.47;6226122;28;20046;-76
2021/08/06 03:58:17;;;;;;;19.75;15.57;;;;;;;13.53;100.00;100164.31;6226213;28;20056;-76
2021/08/06 04:01:19;;;;;;;20.30;16.05;;;;;;;13.47;100.00;100160.34;6226730;28;20492;-76
2021/08/06 04:04:20;;;;;;;18.73;15.80;;;;;;;13.45;100.00;100159.63;6225758;28;20045;-77
2021/08/06 04:07:21;;;;;;;19.65;15.93;;;;;;;13.50;100.00;100160.13;6226370;28;20057;-76
2021/08/06 04:10:23;;;;;;;20.40;15.07;;;;;;;13.48;100.00;100155.91;6251347;28;20045;-76
2021/08/06 04:13:26;;;;;;;18.77;16.02;;;;;;;13.45;100.00;100162.28;6262086;28;20419;-76
2021/08/06 04:16:27;;;;;;;19.45;15.43;;;;;;;13.41;100.00;100160.81;6266809;28;20060;-77
2021/08/06 04:19:29;;;;;;;19.67;15.90;;;;;;;13.41;100.00;100161.66;6275180;28;20055;-76
2021/08/06 04:22:30;;;;;;;25.65;15.52;;;;;;;13.43;100.00;100167.66;6242290;28;20416;-76
2021/08/06 04:25:31;;;;;;;23.00;15.40;;;;;;;13.42;100.00;100165.97;6235787;28;20046;-76
2021/08/06 04:28:35;;;;;;;21.08;15.88;;;;;;;13.42;100.00;100155.41;6247253;28;20050;-76
2021/08/06 04:31:36;;;;;;;19.42;14.77;;;;;;;13.47;100.00;100163.00;6250237;28;20060;-77
2021/08/06 04:34:37;;;;;;;18.35;15.48;;;;;;;13.47;100.00;100170.06;6255000;28;20037;-77
2021/08/06 04:37:50;;;;;;;26.45;16.73;;;;;;;13.49;100.00;100171.66;6266056;28;20060;-77
2021/08/06 04:40:51;;;;;;;23.38;16.50;;;;;;;13.45;100.00;100163.13;6253548;28;20052;-77
2021/08/06 04:43:54;;;;;;;22.73;16.70;;;;;;;13.45;100.00;100159.63;6249453;28;20053;-77
2021/08/06 04:46:55;;;;;;;21.73;16.65;;;;;;;13.49;100.00;100158.44;6264944;28;20769;-77
2021/08/06 04:49:56;;;;;;;27.55;15.55;;;;;;;13.52;100.00;100150.28;6274245;28;20052;-77
2021/08/06 04:52:59;;;;;;;21.10;16.45;;;;;;;13.51;100.00;100155.69;6274394;28;20048;-77
2021/08/06 04:56:00;;;;;;;21.88;16.50;;;;;;;13.50;100.00;100154.84;6273967;28;20056;-76
2021/08/06 04:59:03;;;;;;;25.48;15.60;;;;;;;13.55;100.00;100152.69;6260651;28;20406;-77
2021/08/06 05:02:04;;;;;;;22.88;15.65;;;;;;;13.60;100.00;100144.44;6241255;28;20045;-77
2021/08/06 05:05:06;;;;;;;18.33;15.85;;;;;;;13.61;100.00;100144.31;6236450;28;20050;-77
2021/08/06 05:08:07;;;;;;;23.48;16.42;;;;;;;13.63;100.00;100142.41;6224738;28;20050;-77
2021/08/06 05:11:09;;;;;;;25.90;17.25;;;;;;;13.66;100.00;100144.78;6224624;28;20050;-76
2021/08/06 05:14:11;;;;;;;18.52;15.93;;;;;;;13.69;100.00;100131.38;6224079;28;20054;-77
2021/08/06 05:17:13;;;;;;;22.75;17.08;;;;;;;13.72;100.00;100130.31;6224425;28;20050;-77
2021/08/06 05:20:15;;;;;;;25.13;17.88;;;;;;;13.71;100.00;100121.53;6224593;28;20057;-77
2021/08/06 05:23:16;;;;;;;20.10;16.08;;;;;;;13.73;100.00;100124.06;6224360;28;20081;-77
2021/08/06 05:26:18;;;;;;;18.52;15.70;;;;;;;13.80;100.00;100119.13;6224297;28;20057;-77
2021/08/06 05:29:20;;;;;;;24.42;17.20;;;;;;;13.83;100.00;100126.84;6224400;28;20049;-77
2021/08/06 05:32:22;;;;;;;19.38;15.73;;;;;;;13.88;100.00;100125.50;6224334;28;20054;-77
2021/08/06 05:35:23;;;;;;;22.77;16.48;;;;;;;13.89;100.00;100127.19;6223986;28;20053;-76
2021/08/06 05:38:24;;;;;;;20.77;16.17;;;;;;;13.91;100.00;100117.38;6224234;28;20045;-76
2021/08/06 05:41:26;;;;;;;21.15;14.95;;;;;;;13.96;100.00;100109.09;6224014;28;20054;-77
2021/08/06 05:44:28;;;;;;;22.20;16.83;;;;;;;14.01;100.00;100112.22;6223741;28;20050;-77
2021/08/06 05:47:41;;;;;;;19.30;15.95;;;;;;;14.08;100.00;100112.56;6224333;28;20057;-77
2021/08/06 05:50:42;;;;;;;20.23;15.48;;;;;;;14.15;100.00;100113.78;6223709;28;20053;-77
2021/08/06 05:53:43;;;;;;;19.13;15.93;;;;;;;14.18;100.00;100110.91;6223722;28;20052;-77
2021/08/06 05:56:45;;;;;;;20.52;16.23;;;;;;;14.24;100.00;100112.22;6223811;28;20060;-77
2021/08/06 05:59:47;;;;;;;21.85;16.98;;;;;;;14.28;100.00;100111.84;6223721;28;20054;-77
2021/08/06 06:02:49;;;;;;;23.52;15.80;;;;;;;14.34;100.00;100115.78;6223948;28;20053;-77
2021/08/06 06:05:50;;;;;;;19.35;15.90;;;;;;;14.40;100.00;100121.47;6223357;28;20050;-77
2021/08/06 06:08:52;;;;;;;27.55;16.35;;;;;;;14.44;100.00;100125.53;6223797;28;20057;-78
2021/08/06 06:11:53;;;;;;;18.13;15.23;;;;;;;14.52;100.00;100124.94;6223995;28;20046;-77
2021/08/06 06:14:56;;;;;;;18.90;15.77;;;;;;;14.56;100.00;100131.66;6222898;28;20425;-77
2021/08/06 06:17:57;;;;;;;19.15;14.82;;;;;;;14.64;100.00;100133.72;6223137;28;20050;-77
2021/08/06 06:20:58;;;;;;;21.90;15.43;;;;;;;14.70;100.00;100127.91;6223080;28;20050;-77
2021/08/06 06:24:00;;;;;;;20.95;15.05;;;;;;;14.76;100.00;100124.81;6222753;28;20046;-76
2021/08/06 06:27:01;;;;;;;17.85;14.27;;;;;;;14.84;100.00;100113.56;6222957;28;20050;-77
2021/08/06 06:30:05;;;;;;;18.63;14.50;;;;;;;14.91;100.00;100126.19;6222885;28;20068;-76
2021/08/06 06:33:06;;;;;;;19.02;15.43;;;;;;;14.96;100.00;100117.88;6222945;28;20100;-77
2021/08/06 06:36:07;;;;;;;18.33;14.60;;;;;;;15.01;100.00;100121.00;6263471;22;20052;-76
2021/08/06 06:39:09;;;;;;;18.90;14.90;;;;;;;15.09;100.00;100121.19;6247039;28;20064;-76
2021/08/06 06:42:10;;;;;;;17.20;14.05;;;;;;;15.17;100.00;100108.19;6247169;28;20061;-76
2021/08/06 06:45:13;;;;;;;20.05;14.45;;;;;;;15.29;100.00;100105.47;6238620;28;20060;-76
2021/08/06 06:48:15;;;;;;;19.83;14.40;;;;;;;15.38;100.00;100104.69;6243876;28;20056;-76
2021/08/06 06:51:16;;;;;;;17.25;13.27;;;;;;;15.41;100.00;100115.88;6247046;28;20057;-76
2021/08/06 06:54:18;;;;;;;17.77;13.40;;;;;;;15.50;100.00;100121.38;6246751;28;20045;-76
2021/08/06 06:57:19;;;;;;;17.45;12.82;;;;;;;15.58;100.00;100118.91;6248848;28;20049;-76
2021/08/06 07:00:24;;;;;;;14.85;12.02;;;;;;;15.62;100.00;100121.16;6260170;28;20507;-76
2021/08/06 07:03:25;;;;;;;19.33;12.23;;;;;;;15.75;100.00;100122.81;6262864;28;20041;-77
2021/08/06 07:06:27;;;;;;;17.00;12.18;;;;;;;15.74;100.00;100132.59;6263232;28;20048;-76
2021/08/06 07:09:28;;;;;;;16.08;11.02;;;;;;;15.80;100.00;100129.41;6269255;28;20052;-76
2021/08/06 07:12:30;;;;;;;14.35;11.55;;;;;;;15.80;100.00;100117.97;6262697;28;20060;-76
2021/08/06 07:15:33;;;;;;;12.80;10.55;;;;;;;15.85;100.00;100116.63;6260902;28;20128;-76
2021/08/06 07:18:34;;;;;;;13.95;11.38;;;;;;;15.90;100.00;100121.53;6245343;28;20041;-76
2021/08/06 07:21:36;;;;;;;12.43;10.98;;;;;;;15.95;100.00;100122.81;6246339;28;20073;-76
2021/08/06 07:24:37;;;;;;;22.67;11.63;;;;;;;16.03;100.00;100114.19;6246114;28;20052;-76
2021/08/06 07:27:39;;;;;;;11.80;10.27;;;;;;;16.13;100.00;100114.25;6252126;28;20049;-76
2021/08/06 07:30:42;;;;;;;13.55;9.85;;;;;;;16.17;100.00;100115.66;6262805;28;20045;-76
2021/08/06 07:33:43;;;;;;;14.30;9.80;;;;;;;16.29;100.00;100108.44;6270701;28;20422;-76
2021/08/06 07:36:45;;;;;;;11.27;8.90;;;;;;;16.33;100.00;100104.53;6270899;28;20049;-76
2021/08/06 07:39:46;;;;;;;16.98;10.07;;;;;;;16.40;100.00;100111.00;6271162;28;20049;-76
2021/08/06 07:42:47;;;;;;;19.40;11.00;;;;;;;16.36;100.00;100107.78;6270821;28;20064;-76
2021/08/06 07:45:50;;;;;;;15.85;9.38;;;;;;;16.37;100.00;100100.66;6270540;28;20420;-76
2021/08/06 07:48:52;;;;;;;13.77;9.68;;;;;;;16.38;100.00;100103.16;6270886;28;20060;-76
2021/08/06 07:51:53;;;;;;;13.75;7.90;;;;;;;16.40;100.00;100106.53;6270929;28;20049;-75
2021/08/06 07:54:54;;;;;;;12.90;8.32;;;;;;;16.41;100.00;100107.38;6254274;28;20042;-77
2021/08/06 07:57:56;;;;;;;10.80;7.88;;;;;;;16.47;100.00;100101.50;6256980;28;20049;-76
2021/08/06 08:00:58;;;;;;;10.13;8.50;;;;;;;16.49;100.00;100110.19;6271153;28;20546;-77
2021/08/06 08:04:00;;;;;;;12.85;8.38;;;;;;;16.57;100.00;100112.16;6256256;28;20052;-76
2021/08/06 08:07:01;;;;;;;11.85;8.68;;;;;;;16.66;100.00;100106.03;6244964;28;20076;-77
2021/08/06 08:10:03;;;;;;;13.90;8.85;;;;;;;16.73;100.00;100104.53;6232534;28;20046;-77
2021/08/06 08:13:05;;;;;;;8.90;7.85;;;;;;;16.80;100.00;100105.66;6238378;28;20049;-76
2021/08/06 08:16:08;;;;;;;12.35;7.82;;;;;;;16.85;100.00;100111.41;6243815;28;20056;-77
2021/08/06 08:19:09;;;;;;;8.40;7.47;;;;;;;16.91;100.00;100107.38;6246322;28;20073;-77
2021/08/06 08:22:11;;;;;;;9.27;7.90;;;;;;;16.94;100.00;100110.59;6246436;28;20054;-76
2021/08/06 08:25:13;;;;;;;8.95;6.90;;;;;;;17.02;100.00;100111.69;6249075;28;20050;-77
2021/08/06 08:28:14;;;;;;;9.13;7.68;;;;;;;17.11;100.00;100105.56;6248927;28;20484;-77
2021/08/06 08:31:18;;;;;;;10.23;7.30;;;;;;;17.25;100.00;100118.41;6247982;28;20054;-77
2021/08/06 08:34:19;;;;;;;13.23;7.57;;;;;;;17.42;100.00;100111.56;6245189;28;20120;-77
2021/08/06 08:37:21;;;;;;;10.40;7.13;;;;;;;17.50;100.00;100111.69;6259235;28;20052;-77
2021/08/06 08:40:22;;;;;;;10.38;7.30;;;;;;;17.57;100.00;100111.94;6273170;28;20191;-77
2021/08/06 08:43:24;;;;;;;8.63;7.03;;;;;;;17.63;100.00;100114.06;6259212;28;20500;-78
2021/08/06 08:46:30;;;;;;;7.05;6.07;;;;;;;17.77;100.00;100118.94;6258986;28;20053;-78
2021/08/06 08:49:34;;;;;;;7.47;6.15;;;;;;;17.82;100.00;100110.53;6258911;28;20053;-77
2021/08/06 08:52:35;;;;;;;7.28;6.07;;;;;;;17.93;100.00;100113.00;6261045;28;20056;-78
2021/08/06 08:55:38;;;;;;;11.45;6.45;;;;;;;18.02;100.00;100101.50;6271234;28;20045;-78
2021/08/06 08:58:40;;;;;;;8.85;6.15;;;;;;;18.25;100.00;100109.97;6263275;28;20053;-79
2021/08/06 09:01:43;;;;;;;11.25;6.22;;;;;;;18.36;100.00;100099.13;6263462;28;20049;-76
2021/08/06 09:04:46;;;;;;;9.13;4.93;;;;;;;18.48;100.00;100099.75;6260319;28;20393;-78
2021/08/06 09:07:49;;;;;;;6.43;4.72;;;;;;;18.57;100.00;100095.38;6257214;28;20037;-77
2021/08/06 09:10:50;;;;;;;7.82;5.22;;;;;;;18.69;100.00;100083.56;6257709;28;20053;-77
2021/08/06 09:13:52;;;;;;;6.43;4.82;;;;;;;18.84;100.00;100087.38;6260041;28;20048;-77
2021/08/06 09:17:01;;;;;;;10.40;5.38;;;;;;;18.91;100.00;100084.97;6255476;28;20523;-78
2021/08/06 09:20:07;;;;;;;7.10;5.05;;;;;;;19.00;100.00;100076.88;6254334;28;20049;-77
2021/08/06 09:23:08;;;;;;;6.40;4.82;;;;;;;19.12;100.00;100080.16;6263949;28;20053;-79
2021/08/06 09:26:28;;;;;;;8.35;4.80;;;;;;;19.09;100.00;100077.81;6249385;28;20401;-78
2021/08/06 09:29:30;;;;;;;6.28;4.30;;;;;;;19.04;100.00;100080.09;6255351;28;20049;-79
2021/08/06 09:32:48;;;;;;;6.15;4.18;;;;;;;19.07;100.00;100076.28;6249072;28;20045;-77
2021/08/06 09:35:50;;;;;;;6.35;4.00;;;;;;;19.07;100.00;100082.44;6248545;28;20063;-80
2021/08/06 09:39:11;;;;;;;7.18;4.75;;;;;;;19.13;100.00;100081.00;6249259;28;20057;-79
2021/08/06 09:42:21;;;;;;;7.38;3.50;;;;;;;19.07;100.00;100076.28;6249672;28;20053;-79
2021/08/06 09:45:24;;;;;;;5.95;3.25;;;;;;;19.09;100.00;100071.66;6252276;28;20524;-80
2021/08/06 09:48:27;;;;;;;8.35;2.90;;;;;;;19.05;100.00;100079.09;6266012;28;20045;-79
2021/08/06 09:51:30;;;;;;;3.35;2.97;;;;;;;19.17;100.00;100056.56;6249341;28;20049;-79
2021/08/06 09:54:31;;;;;;;6.78;3.13;;;;;;;19.45;100.00;100064.44;6248423;28;20045;-78
2021/08/06 09:57:33;;;;;;;4.95;3.10;;;;;;;19.77;98.82;100064.66;6247402;28;20049;-79
2021/08/06 10:00:38;;;;;;;7.80;2.50;;;;;;;20.04;96.79;100067.31;6247644;28;20049;-79
2021/08/06 10:03:41;;;;;;;3.58;2.55;;;;;;;20.11;98.91;100052.31;6248596;28;20056;-80
2021/08/06 10:06:57;;;;;;;4.35;3.00;;;;;;;20.11;96.48;100057.66;6246566;28;20045;-79
2021/08/06 10:09:59;;;;;;;4.80;2.33;;;;;;;19.96;97.27;100052.94;6238065;28;20056;-79
2021/08/06 10:13:01;;;;;;;7.68;2.45;;;;;;;19.98;95.75;100050.09;6253623;28;20046;-79
2021/08/06 10:16:02;;;;;;;5.38;2.40;;;;;;;20.06;93.93;100050.16;6264232;28;20041;-78
2021/08/06 10:19:05;;;;;;;2.72;2.22;;;;;;;20.09;92.61;100049.84;6273829;28;20052;-79
2021/08/06 10:22:08;;;;;;;4.57;1.73;;;;;;;19.94;89.29;100056.75;6257438;28;20531;-79
2021/08/06 10:25:12;;;;;;;2.55;2.35;;;;;;;19.91;92.67;100054.41;6248390;28;20052;-80
2021/08/06 10:28:14;;;;;;;2.33;2.13;;;;;;;20.00;91.06;100050.78;6249010;28;20049;-79
2021/08/06 10:31:20;;;;;;;3.03;2.40;;;;;;;20.24;95.17;100044.72;6248713;28;20057;-79
2021/08/06 10:34:22;;;;;;;6.13;2.85;;;;;;;20.28;91.38;100044.22;6248147;28;20053;-79
2021/08/06 10:38:05;;;;;;;7.38;2.40;;;;;;;20.12;91.53;100038.84;6248622;28;20086;-79
2021/08/06 10:41:15;;;;;;;6.03;2.38;;;;;;;19.95;94.17;100051.28;6248907;28;20060;-78
2021/08/06 10:44:16;;;;;;;4.13;2.40;;;;;;;19.75;93.29;100045.31;6247775;28;20492;-78
2021/08/06 10:47:18;;;;;;;5.88;2.50;;;;;;;19.57;95.62;100049.00;6247716;28;20050;-78
2021/08/06 10:50:23;;;;;;;3.78;2.30;;;;;;;19.42;95.92;100051.41;6247641;28;20497;-79
2021/08/06 10:53:25;;;;;;;7.40;2.63;;;;;;;19.34;99.20;100059.34;6247825;28;20472;-79
2021/08/06 10:56:29;;;;;;;2.53;2.17;;;;;;;19.54;100.00;100044.84;6247861;28;20049;-78
2021/08/06 10:59:38;;;;;;;2.72;2.25;;;;;;;19.62;97.61;100036.06;6246073;28;20136;-79
2021/08/06 11:02:48;;;;;;;6.03;2.30;;;;;;;19.66;97.08;100037.44;6248174;28;20124;-79
2021/08/06 11:05:50;;;;;;;3.70;2.55;;;;;;;19.57;96.36;100041.84;6247900;28;20049;-79
2021/08/06 11:08:51;;;;;;;4.90;2.75;;;;;;;19.58;95.19;100038.22;6247161;28;20045;-80
2021/08/06 11:11:55;;;;;;;4.60;2.30;;;;;;;19.55;94.10;100037.69;6255437;28;20045;-77
2021/08/06 11:14:57;;;;;;;4.43;2.40;;;;;;;19.51;96.08;100037.97;6263492;28;20044;-79
2021/08/06 11:18:02;;;;;;;2.83;2.38;;;;;;;19.52;92.69;100039.66;6272443;28;20132;-79
2021/08/06 11:21:05;;;;;;;3.97;1.80;;;;;;;19.55;92.51;100043.84;6271981;28;20045;-78
2021/08/06 11:24:06;;;;;;;3.33;2.10;;;;;;;19.47;93.28;100041.13;6269677;28;20049;-79
2021/08/06 11:27:08;;;;;;;4.97;2.17;;;;;;;19.40;95.68;100042.75;6242482;28;20057;-79
2021/08/06 11:30:12;;;;;;;3.85;2.42;;;;;;;19.19;98.89;100053.75;6264865;28;20044;-80
2021/08/06 11:33:14;;;;;;;2.83;2.35;;;;;;;19.05;100.00;100047.13;6248905;28;20053;-79
2021/08/06 11:36:18;;;;;;;3.28;2.53;;;;;;;19.04;100.00;100040.16;6246555;28;20512;-79
2021/08/06 11:39:19;;;;;;;5.05;3.00;;;;;;;19.41;100.00;100044.41;6247518;28;20052;-79
2021/08/06 11:42:25;;;;;;;3.83;2.40;;;;;;;19.74;99.46;100038.31;6247252;28;20049;-79
2021/08/06 11:45:28;;;;;;;2.72;2.53;;;;;;;19.71;99.16;100027.13;6247949;28;20046;-79
2021/08/06 11:48:29;;;;;;;4.32;2.55;;;;;;;19.54;100.00;100022.69;6245499;28;20053;-79
2021/08/06 11:51:32;;;;;;;3.65;2.53;;;;;;;19.58;100.00;100018.72;6222983;28;20058;-80
2021/08/06 11:54:33;;;;;;;3.65;2.30;;;;;;;20.18;100.00;100019.53;6222537;28;20046;-80
2021/08/06 11:57:45;;;;;;;2.08;1.55;;;;;;;20.59;94.18;100016.16;6225664;28;20428;-79
2021/08/06 12:00:47;;;;;;;1.60;1.50;;;;;;;20.42;93.30;100023.25;6227661;28;20386;-79
2021/08/06 12:03:50;;;;;;;3.47;1.50;;;;;;;20.09;92.48;100019.66;6227059;28;20049;-80
2021/08/06 12:06:52;;;;;;;1.88;1.73;;;;;;;19.78;95.94;100017.50;6227135;28;20042;-80
2021/08/06 12:09:54;;;;;;;1.80;1.40;;;;;;;19.59;99.00;100023.88;6232248;28;20496;-80
2021/08/06 12:12:55;;;;;;;1.40;1.27;;;;;;;19.40;99.33;100019.59;6249060;28;20076;-80
2021/08/06 12:16:02;;;;;;;2.50;1.67;;;;;;;19.25;97.76;100039.78;6257828;28;20052;-79
2021/08/06 12:19:06;;;;;;;3.10;1.38;;;;;;;19.09;100.00;100071.66;6250390;28;20057;-77
2021/08/06 12:22:12;;;;;;;11.98;2.45;;;;;;;18.51;100.00;100094.97;6251396;28;20056;-76
2021/08/06 12:25:15;;;;;;;7.25;2.05;;;;;;;17.59;100.00;100097.56;6250287;28;20107;-74
2021/08/06 12:28:21;;;;;;;7.43;1.90;;;;;;;17.06;100.00;100083.91;6249027;28;20046;-75
2021/08/06 12:31:26;;;;;;;2.80;1.38;;;;;;;16.78;100.00;100077.59;6250154;28;20057;-76
2021/08/06 12:34:29;;;;;;;2.45;1.42;;;;;;;16.78;100.00;100077.59;6249636;28;20057;-76
2021/08/06 12:37:37;;;;;;;4.13;1.80;;;;;;;16.89;100.00;100080.94;6249849;28;20049;-76
2021/08/06 12:40:43;;;;;;;5.18;1.90;;;;;;;17.02;100.00;100082.50;6249943;28;20045;-76
2021/08/06 12:43:45;;;;;;;5.43;2.08;;;;;;;17.11;100.00;100086.97;6249435;28;20053;-76
2021/08/06 12:47:05;;;;;;;7.63;3.30;;;;;;;17.21;100.00;100074.50;6235840;28;20412;-75
2021/08/06 12:50:08;;;;;;;10.25;3.78;;;;;;;17.32;100.00;100077.03;6251718;28;20045;-75
2021/08/06 12:53:12;;;;;;;8.38;3.50;;;;;;;17.52;100.00;100075.19;6274581;28;20061;-77
2021/08/06 12:56:15;;;;;;;3.60;2.88;;;;;;;17.61;100.00;100068.16;6269585;28;20044;-77
2021/08/06 12:59:20;;;;;;;7.05;2.20;;;;;;;17.53;100.00;100070.69;6268708;28;20049;-75
2021/08/06 13:02:23;;;;;;;3.15;2.00;;;;;;;17.57;100.00;100075.59;6274204;28;20111;-76
2021/08/06 13:05:24;;;;;;;4.28;1.90;;;;;;;17.51;100.00;100084.13;6274110;28;20048;-77
2021/08/06 13:08:29;;;;;;;4.70;1.90;;;;;;;17.50;100.00;100093.09;6273899;28;20041;-77
2021/08/06 13:11:30;;;;;;;4.20;2.67;;;;;;;17.58;100.00;100090.56;6266784;28;20056;-77
2021/08/06 13:14:31;;;;;;;4.82;2.50;;;;;;;17.66;100.00;100088.00;6265664;28;20045;-76
2021/08/06 13:17:32;;;;;;;4.07;2.85;;;;;;;17.77;100.00;100089.72;6275087;28;20044;-76
2021/08/06 13:20:38;;;;;;;3.85;2.45;;;;;;;17.90;100.00;100084.09;6275410;28;20045;-77
2021/08/06 13:23:41;;;;;;;4.35;2.70;;;;;;;18.00;100.00;100085.72;6274015;28;20049;-77
2021/08/06 13:26:42;;;;;;;5.18;2.90;;;;;;;18.04;100.00;100082.78;6274266;28;20051;-77
2021/08/06 13:29:44;;;;;;;3.22;2.60;;;;;;;18.09;100.00;100076.03;6274327;28;20045;-77
2021/08/06 13:32:45;;;;;;;3.55;2.85;;;;;;;18.17;100.00;100081.44;6274342;28;20045;-77
2021/08/06 13:35:46;;;;;;;4.55;2.88;;;;;;;18.41;100.00;100069.44;6274012;28;20526;-77
2021/08/06 13:38:49;;;;;;;7.57;3.60;;;;;;;18.55;100.00;100076.06;6274308;28;20055;-77
2021/08/06 13:41:50;;;;;;;3.60;3.30;;;;;;;18.69;100.00;100064.94;6274243;28;20052;-78
2021/08/06 13:44:52;;;;;;;5.40;3.22;;;;;;;18.59;100.00;100067.63;6273235;28;20056;-75
2021/08/06 13:47:53;;;;;;;6.15;3.42;;;;;;;18.59;100.00;100061.47;6273015;28;20488;-75
2021/08/06 13:50:55;;;;;;;5.07;3.55;;;;;;;18.51;100.00;100056.91;6273066;28;20044;-75
2021/08/06 13:53:57;;;;;;;3.90;3.35;;;;;;;18.87;100.00;100055.13;6272595;28;20431;-75